sensor_id;sensor_type;location;lat;lon;timestamp;pressure;altitude;pressure_sealevel;temperature;humidity
31717;BME280;18301;51.076;17.046;2023-01-19T00:03:20;98787.16;;;4.02;85.76
31717;BME280;18301;51.076;17.046;2023-01-19T00:08:22;98807.09;;;4.09;85.89
31717;BME280;18301;51.076;17.046;2023-01-19T00:13:23;98811.56;;;4.08;85.59
31717;BME280;18301;51.076;17.046;2023-01-19T00:18:25;98811.75;;;4.18;85.75
31717;BME280;18301;51.076;17.046;2023-01-19T00:23:26;98825.78;;;4.09;85.43
31717;BME280;18301;51.076;17.046;2023-01-19T00:28:28;98832.75;;;3.99;86.19
31717;BME280;18301;51.076;17.046;2023-01-19T00:33:29;98840.66;;;3.87;86.03
31717;BME280;18301;51.076;17.046;2023-01-19T00:38:31;98845.91;;;3.89;85.90
31717;BME280;18301;51.076;17.046;2023-01-19T00:43:32;98843.00;;;3.92;86.47
31717;BME280;18301;51.076;17.046;2023-01-19T00:48:34;98842.44;;;4.00;86.75
31717;BME280;18301;51.076;17.046;2023-01-19T00:53:35;98862.31;;;3.96;85.62
31717;BME280;18301;51.076;17.046;2023-01-19T00:58:37;98873.31;;;4.04;86.28
31717;BME280;18301;51.076;17.046;2023-01-19T01:03:38;98868.59;;;4.07;85.75
31717;BME280;18301;51.076;17.046;2023-01-19T01:08:40;98883.34;;;4.13;85.57
31717;BME280;18301;51.076;17.046;2023-01-19T01:13:41;98892.06;;;4.15;85.33
31717;BME280;18301;51.076;17.046;2023-01-19T01:18:43;98888.22;;;4.19;83.76
31717;BME280;18301;51.076;17.046;2023-01-19T01:23:44;98882.47;;;4.12;82.24
31717;BME280;18301;51.076;17.046;2023-01-19T01:28:46;98892.94;;;4.03;81.73
31717;BME280;18301;51.076;17.046;2023-01-19T01:33:47;98892.97;;;3.77;82.94
31717;BME280;18301;51.076;17.046;2023-01-19T01:38:49;98913.69;;;3.61;81.51
31717;BME280;18301;51.076;17.046;2023-01-19T01:43:53;98909.19;;;3.74;79.52
31717;BME280;18301;51.076;17.046;2023-01-19T01:49:09;98905.97;;;3.56;79.99
31717;BME280;18301;51.076;17.046;2023-01-19T01:54:20;98908.00;;;3.53;81.02
31717;BME280;18301;51.076;17.046;2023-01-19T01:59:33;98911.31;;;3.43;80.47
31717;BME280;18301;51.076;17.046;2023-01-19T02:04:43;98917.72;;;3.54;79.47
31717;BME280;18301;51.076;17.046;2023-01-19T02:09:46;98912.91;;;3.72;78.63
31717;BME280;18301;51.076;17.046;2023-01-19T02:15:14;98907.50;;;3.73;78.18
31717;BME280;18301;51.076;17.046;2023-01-19T02:20:16;98921.34;;;3.40;78.88
31717;BME280;18301;51.076;17.046;2023-01-19T02:25:19;98919.78;;;3.23;79.21
31717;BME280;18301;51.076;17.046;2023-01-19T02:30:21;98921.94;;;3.18;79.82
31717;BME280;18301;51.076;17.046;2023-01-19T02:35:23;98934.09;;;3.22;78.71
31717;BME280;18301;51.076;17.046;2023-01-19T02:40:25;98930.34;;;3.12;79.08
31717;BME280;18301;51.076;17.046;2023-01-19T02:45:28;98932.91;;;3.26;78.81
31717;BME280;18301;51.076;17.046;2023-01-19T02:50:42;98930.00;;;3.16;78.15
31717;BME280;18301;51.076;17.046;2023-01-19T02:55:56;98925.53;;;3.17;79.37
31717;BME280;18301;51.076;17.046;2023-01-19T03:01:06;98921.81;;;3.19;79.08
31717;BME280;18301;51.076;17.046;2023-01-19T03:11:39;98932.09;;;2.98;77.49
31717;BME280;18301;51.076;17.046;2023-01-19T03:16:47;98934.03;;;2.96;77.84
31717;BME280;18301;51.076;17.046;2023-01-19T03:22:00;98938.03;;;2.89;78.20
31717;BME280;18301;51.076;17.046;2023-01-19T03:27:11;98925.53;;;3.17;77.93
31717;BME280;18301;51.076;17.046;2023-01-19T03:32:16;98931.69;;;3.05;79.16
31717;BME280;18301;51.076;17.046;2023-01-19T03:37:20;98938.38;;;3.37;78.14
31717;BME280;18301;51.076;17.046;2023-01-19T03:42:23;98934.28;;;3.19;78.44
31717;BME280;18301;51.076;17.046;2023-01-19T03:47:25;98929.78;;;3.07;79.45
31717;BME280;18301;51.076;17.046;2023-01-19T03:52:29;98934.03;;;2.96;80.00
31717;BME280;18301;51.076;17.046;2023-01-19T03:57:33;98922.97;;;3.03;80.20
31717;BME280;18301;51.076;17.046;2023-01-19T04:02:35;98930.13;;;3.15;80.38
31717;BME280;18301;51.076;17.046;2023-01-19T04:07:36;98935.88;;;3.09;80.52
31717;BME280;18301;51.076;17.046;2023-01-19T04:12:38;98950.41;;;2.90;81.31
31717;BME280;18301;51.076;17.046;2023-01-19T04:17:40;98953.81;;;2.92;81.87
31717;BME280;18301;51.076;17.046;2023-01-19T04:22:42;98957.53;;;3.17;81.63
31717;BME280;18301;51.076;17.046;2023-01-19T04:27:43;98958.44;;;3.30;80.67
31717;BME280;18301;51.076;17.046;2023-01-19T04:32:45;98964.78;;;3.15;82.00
31717;BME280;18301;51.076;17.046;2023-01-19T04:37:47;98979.72;;;2.90;82.69
31717;BME280;18301;51.076;17.046;2023-01-19T04:42:48;98984.38;;;3.14;82.40
31717;BME280;18301;51.076;17.046;2023-01-19T04:47:51;99006.22;;;3.33;82.30
31717;BME280;18301;51.076;17.046;2023-01-19T04:52:52;99029.56;;;3.03;83.82
31717;BME280;18301;51.076;17.046;2023-01-19T04:57:54;99036.94;;;3.12;84.16
31717;BME280;18301;51.076;17.046;2023-01-19T05:02:56;99049.03;;;3.17;84.48
31717;BME280;18301;51.076;17.046;2023-01-19T05:07:58;99047.53;;;3.26;83.99
31717;BME280;18301;51.076;17.046;2023-01-19T05:13:00;99049.94;;;3.31;84.26
31717;BME280;18301;51.076;17.046;2023-01-19T05:18:02;99053.69;;;3.14;84.65
31717;BME280;18301;51.076;17.046;2023-01-19T05:23:03;99043.16;;;2.98;84.77
31717;BME280;18301;51.076;17.046;2023-01-19T05:28:04;99039.00;;;3.21;85.02
31717;BME280;18301;51.076;17.046;2023-01-19T05:33:06;99044.75;;;3.15;84.78
31717;BME280;18301;51.076;17.046;2023-01-19T05:38:07;99054.59;;;3.27;84.32
31717;BME280;18301;51.076;17.046;2023-01-19T05:43:09;99050.22;;;3.26;84.06
31717;BME280;18301;51.076;17.046;2023-01-19T05:48:11;99044.75;;;3.15;83.56
31717;BME280;18301;51.076;17.046;2023-01-19T05:53:12;99053.00;;;3.25;83.96
31717;BME280;18301;51.076;17.046;2023-01-19T05:58:13;99054.22;;;3.33;84.10
31717;BME280;18301;51.076;17.046;2023-01-19T06:03:15;99078.84;;;2.95;83.88
31717;BME280;18301;51.076;17.046;2023-01-19T06:08:16;99099.03;;;2.99;84.20
31717;BME280;18301;51.076;17.046;2023-01-19T06:13:18;99110.41;;;3.16;83.98
31717;BME280;18301;51.076;17.046;2023-01-19T06:18:20;99108.53;;;3.18;83.17
31717;BME280;18301;51.076;17.046;2023-01-19T06:23:21;99117.63;;;3.14;83.65
31717;BME280;18301;51.076;17.046;2023-01-19T06:28:23;99114.63;;;3.06;84.26
31717;BME280;18301;51.076;17.046;2023-01-19T06:33:25;99120.34;;;2.99;84.44
31717;BME280;18301;51.076;17.046;2023-01-19T06:38:28;99142.53;;;3.00;84.70
31717;BME280;18301;51.076;17.046;2023-01-19T06:43:30;99154.41;;;2.94;84.58
31717;BME280;18301;51.076;17.046;2023-01-19T06:48:32;99148.31;;;2.64;85.64
31717;BME280;18301;51.076;17.046;2023-01-19T06:53:33;99135.56;;;2.83;84.23
31717;BME280;18301;51.076;17.046;2023-01-19T06:58:35;99149.75;;;2.98;83.16
31717;BME280;18301;51.076;17.046;2023-01-19T07:03:36;99157.09;;;3.09;83.28
31717;BME280;18301;51.076;17.046;2023-01-19T07:08:38;99150.38;;;3.30;81.01
31717;BME280;18301;51.076;17.046;2023-01-19T07:13:40;99144.88;;;3.05;81.34
31717;BME280;18301;51.076;17.046;2023-01-19T07:18:43;99151.56;;;2.97;80.40
31717;BME280;18301;51.076;17.046;2023-01-19T07:23:49;99148.50;;;3.04;79.22
31717;BME280;18301;51.076;17.046;2023-01-19T07:28:51;99152.88;;;2.76;81.04
31717;BME280;18301;51.076;17.046;2023-01-19T07:33:52;99162.41;;;2.94;79.56
31717;BME280;18301;51.076;17.046;2023-01-19T07:38:54;99157.84;;;2.96;77.33
31717;BME280;18301;51.076;17.046;2023-01-19T07:43:55;99152.53;;;2.96;78.79
31717;BME280;18301;51.076;17.046;2023-01-19T07:48:57;99158.97;;;2.64;78.83
31717;BME280;18301;51.076;17.046;2023-01-19T07:53:58;99154.78;;;2.74;78.52
31717;BME280;18301;51.076;17.046;2023-01-19T07:59:00;99151.75;;;2.80;78.44
31717;BME280;18301;51.076;17.046;2023-01-19T08:04:01;99164.59;;;3.02;77.84
31717;BME280;18301;51.076;17.046;2023-01-19T08:09:03;99182.38;;;2.59;78.11
31717;BME280;18301;51.076;17.046;2023-01-19T08:14:08;99181.16;;;2.79;76.77
31717;BME280;18301;51.076;17.046;2023-01-19T08:19:09;99193.50;;;2.80;77.66
31717;BME280;18301;51.076;17.046;2023-01-19T08:24:17;99187.22;;;2.66;77.79
31717;BME280;18301;51.076;17.046;2023-01-19T08:29:19;99203.06;;;2.84;76.88
31717;BME280;18301;51.076;17.046;2023-01-19T08:34:21;99202.47;;;2.79;77.51
31717;BME280;18301;51.076;17.046;2023-01-19T08:39:22;99207.72;;;2.94;76.77
31717;BME280;18301;51.076;17.046;2023-01-19T08:44:25;99204.84;;;2.97;76.50
31717;BME280;18301;51.076;17.046;2023-01-19T08:49:27;99208.84;;;2.90;74.21
31717;BME280;18301;51.076;17.046;2023-01-19T08:54:28;99210.19;;;2.97;75.89
31717;BME280;18301;51.076;17.046;2023-01-19T08:59:29;99208.66;;;2.79;74.76
31717;BME280;18301;51.076;17.046;2023-01-19T09:04:31;99233.34;;;2.67;74.97
31717;BME280;18301;51.076;17.046;2023-01-19T09:09:34;99233.16;;;2.70;75.12
31717;BME280;18301;51.076;17.046;2023-01-19T09:14:38;99232.56;;;2.20;75.35
31717;BME280;18301;51.076;17.046;2023-01-19T09:19:39;99251.88;;;2.24;76.00
31717;BME280;18301;51.076;17.046;2023-01-19T09:24:41;99251.56;;;2.44;75.86
31717;BME280;18301;51.076;17.046;2023-01-19T09:29:42;99258.84;;;2.57;74.93
31717;BME280;18301;51.076;17.046;2023-01-19T09:34:52;99262.25;;;2.28;74.74
31717;BME280;18301;51.076;17.046;2023-01-19T09:39:55;99253.44;;;2.72;74.33
31717;BME280;18301;51.076;17.046;2023-01-19T09:44:57;99251.59;;;3.03;74.20
31717;BME280;18301;51.076;17.046;2023-01-19T09:50:03;99243.31;;;3.22;72.80
31717;BME280;18301;51.076;17.046;2023-01-19T09:55:18;99230.72;;;3.53;71.18
31717;BME280;18301;51.076;17.046;2023-01-19T10:00:21;99226.19;;;3.82;66.00
31717;BME280;18301;51.076;17.046;2023-01-19T10:05:29;99234.44;;;3.64;66.70
31717;BME280;18301;51.076;17.046;2023-01-19T10:10:33;99220.97;;;3.66;67.87
31717;BME280;18301;51.076;17.046;2023-01-19T10:15:41;99224.22;;;3.71;67.41
31717;BME280;18301;51.076;17.046;2023-01-19T10:20:48;99214.59;;;3.68;68.38
31717;BME280;18301;51.076;17.046;2023-01-19T10:25:51;99225.94;;;3.99;66.31
31717;BME280;18301;51.076;17.046;2023-01-19T10:30:54;99224.63;;;4.19;64.43
31717;BME280;18301;51.076;17.046;2023-01-19T10:35:56;99223.22;;;4.41;66.21
31717;BME280;18301;51.076;17.046;2023-01-19T10:41:06;99224.25;;;4.38;66.09
31717;BME280;18301;51.076;17.046;2023-01-19T10:46:19;99233.28;;;4.50;64.99
31717;BME280;18301;51.076;17.046;2023-01-19T10:51:22;99231.81;;;4.71;64.35
31717;BME280;18301;51.076;17.046;2023-01-19T10:56:35;99224.69;;;4.45;63.96
31717;BME280;18301;51.076;17.046;2023-01-19T11:01:38;99228.69;;;4.65;61.70
31717;BME280;18301;51.076;17.046;2023-01-19T11:06:39;99229.97;;;4.59;61.62
31717;BME280;18301;51.076;17.046;2023-01-19T11:11:47;99232.47;;;4.88;62.97
31717;BME280;18301;51.076;17.046;2023-01-19T11:16:54;99236.19;;;4.72;61.96
31717;BME280;18301;51.076;17.046;2023-01-19T11:22:10;99217.66;;;4.44;59.10
31717;BME280;18301;51.076;17.046;2023-01-19T11:27:16;99225.16;;;4.77;61.99
31717;BME280;18301;51.076;17.046;2023-01-19T11:32:21;99202.94;;;4.76;62.46
31717;BME280;18301;51.076;17.046;2023-01-19T11:37:29;99207.97;;;4.68;61.08
31717;BME280;18301;51.076;17.046;2023-01-19T11:42:32;99209.81;;;4.93;60.73
31717;BME280;18301;51.076;17.046;2023-01-19T11:47:45;99205.63;;;4.76;61.28
31717;BME280;18301;51.076;17.046;2023-01-19T11:52:51;99203.59;;;4.93;59.18
31717;BME280;18301;51.076;17.046;2023-01-19T11:57:55;99205.94;;;4.84;56.90
31717;BME280;18301;51.076;17.046;2023-01-19T12:03:21;99195.81;;;4.90;58.69
31717;BME280;18301;51.076;17.046;2023-01-19T12:08:29;99193.78;;;4.93;59.34
31717;BME280;18301;51.076;17.046;2023-01-19T12:13:35;99186.94;;;5.02;57.98
31717;BME280;18301;51.076;17.046;2023-01-19T12:18:41;99174.66;;;5.49;57.88
31717;BME280;18301;51.076;17.046;2023-01-19T12:29:14;99173.31;;;5.67;57.08
31717;BME280;18301;51.076;17.046;2023-01-19T12:39:31;99182.19;;;5.18;57.70
31717;BME280;18301;51.076;17.046;2023-01-19T12:44:34;99178.56;;;4.94;57.17
31717;BME280;18301;51.076;17.046;2023-01-19T12:49:54;99180.28;;;4.95;57.34
31717;BME280;18301;51.076;17.046;2023-01-19T13:05:24;99184.97;;;5.17;58.43
31717;BME280;18301;51.076;17.046;2023-01-19T13:21:40;99180.06;;;4.98;59.17
31717;BME280;18301;51.076;17.046;2023-01-19T13:31:50;99194.81;;;5.16;59.70
31717;BME280;18301;51.076;17.046;2023-01-19T13:37:02;99196.72;;;5.27;59.15
31717;BME280;18301;51.076;17.046;2023-01-19T13:42:13;99206.16;;;5.07;59.52
31717;BME280;18301;51.076;17.046;2023-01-19T13:47:34;99209.16;;;5.02;58.85
31717;BME280;18301;51.076;17.046;2023-01-19T13:52:42;99207.13;;;4.93;58.99
31717;BME280;18301;51.076;17.046;2023-01-19T13:57:45;99217.50;;;4.98;58.95
31717;BME280;18301;51.076;17.046;2023-01-19T14:02:58;99220.28;;;4.96;59.22
31717;BME280;18301;51.076;17.046;2023-01-19T14:23:46;99231.13;;;4.55;56.03
31717;BME280;18301;51.076;17.046;2023-01-19T14:28:48;99234.81;;;4.39;57.16
31717;BME280;18301;51.076;17.046;2023-01-19T14:33:52;99228.19;;;4.32;57.21
31717;BME280;18301;51.076;17.046;2023-01-19T14:38:57;99239.22;;;4.41;57.25
31717;BME280;18301;51.076;17.046;2023-01-19T14:43:59;99240.50;;;4.35;57.51
31717;BME280;18301;51.076;17.046;2023-01-19T14:49:03;99249.81;;;4.15;58.14
31717;BME280;18301;51.076;17.046;2023-01-19T14:54:14;99245.28;;;4.03;58.15
31717;BME280;18301;51.076;17.046;2023-01-19T14:59:17;99260.75;;;3.98;59.23
31717;BME280;18301;51.076;17.046;2023-01-19T15:04:19;99266.56;;;3.90;60.07
31717;BME280;18301;51.076;17.046;2023-01-19T15:09:21;99270.13;;;3.76;60.17
31717;BME280;18301;51.076;17.046;2023-01-19T15:14:22;99277.38;;;3.74;60.35
31717;BME280;18301;51.076;17.046;2023-01-19T15:19:24;99285.19;;;3.63;61.07
31717;BME280;18301;51.076;17.046;2023-01-19T15:24:26;99277.78;;;3.54;61.38
31717;BME280;18301;51.076;17.046;2023-01-19T15:29:27;99284.25;;;3.50;61.94
31717;BME280;18301;51.076;17.046;2023-01-19T15:34:31;99286.06;;;3.35;62.38
31717;BME280;18301;51.076;17.046;2023-01-19T15:39:32;99287.47;;;3.26;63.56
31717;BME280;18301;51.076;17.046;2023-01-19T15:44:34;99289.97;;;3.15;63.74
31717;BME280;18301;51.076;17.046;2023-01-19T15:49:35;99293.09;;;3.07;64.22
31717;BME280;18301;51.076;17.046;2023-01-19T15:54:37;99293.47;;;3.01;64.62
31717;BME280;18301;51.076;17.046;2023-01-19T15:59:38;99290.91;;;2.99;65.12
31717;BME280;18301;51.076;17.046;2023-01-19T16:04:40;99302.28;;;2.87;65.14
31717;BME280;18301;51.076;17.046;2023-01-19T16:09:41;99302.16;;;2.74;65.93
31717;BME280;18301;51.076;17.046;2023-01-19T16:14:42;99308.91;;;2.66;66.04
31717;BME280;18301;51.076;17.046;2023-01-19T16:19:44;99312.00;;;2.58;66.67
31717;BME280;18301;51.076;17.046;2023-01-19T16:24:46;99320.63;;;2.47;66.80
31717;BME280;18301;51.076;17.046;2023-01-19T16:29:47;99312.97;;;2.41;66.76
31717;BME280;18301;51.076;17.046;2023-01-19T16:34:49;99321.16;;;2.38;67.23
31717;BME280;18301;51.076;17.046;2023-01-19T16:39:50;99317.34;;;2.42;67.42
31717;BME280;18301;51.076;17.046;2023-01-19T16:44:52;99323.53;;;2.43;67.55
31717;BME280;18301;51.076;17.046;2023-01-19T16:49:54;99328.50;;;2.49;67.75
31717;BME280;18301;51.076;17.046;2023-01-19T16:54:56;99325.59;;;2.53;67.31
31717;BME280;18301;51.076;17.046;2023-01-19T16:59:57;99327.66;;;2.48;67.28
31717;BME280;18301;51.076;17.046;2023-01-19T17:04:59;99338.75;;;2.41;67.40
31717;BME280;18301;51.076;17.046;2023-01-19T17:10:00;99324.41;;;2.43;67.81
31717;BME280;18301;51.076;17.046;2023-01-19T17:15:02;99320.19;;;2.39;67.49
31717;BME280;18301;51.076;17.046;2023-01-19T17:20:04;99328.63;;;2.32;67.40
31717;BME280;18301;51.076;17.046;2023-01-19T17:25:06;99335.06;;;2.27;67.64
31717;BME280;18301;51.076;17.046;2023-01-19T17:30:08;99323.91;;;2.21;67.53
31717;BME280;18301;51.076;17.046;2023-01-19T17:35:10;99336.25;;;2.06;67.80
31717;BME280;18301;51.076;17.046;2023-01-19T17:40:12;99346.06;;;2.05;68.35
31717;BME280;18301;51.076;17.046;2023-01-19T17:45:14;99355.22;;;2.00;68.36
31717;BME280;18301;51.076;17.046;2023-01-19T17:50:16;99359.13;;;1.94;69.31
31717;BME280;18301;51.076;17.046;2023-01-19T17:55:17;99368.00;;;1.93;69.10
31717;BME280;18301;51.076;17.046;2023-01-19T18:00:20;99368.00;;;1.93;69.28
31717;BME280;18301;51.076;17.046;2023-01-19T18:05:22;99362.34;;;1.83;69.29
31717;BME280;18301;51.076;17.046;2023-01-19T18:10:23;99371.78;;;1.73;69.35
31717;BME280;18301;51.076;17.046;2023-01-19T18:15:24;99369.34;;;1.69;69.50
31717;BME280;18301;51.076;17.046;2023-01-19T18:20:26;99377.75;;;1.61;70.04
31717;BME280;18301;51.076;17.046;2023-01-19T18:25:27;99371.13;;;1.52;70.42
31717;BME280;18301;51.076;17.046;2023-01-19T18:30:29;99379.25;;;1.49;70.51
31717;BME280;18301;51.076;17.046;2023-01-19T18:35:31;99378.16;;;1.53;70.57
31717;BME280;18301;51.076;17.046;2023-01-19T18:40:32;99378.03;;;1.39;70.91
31717;BME280;18301;51.076;17.046;2023-01-19T18:45:34;99371.13;;;1.35;70.65
31717;BME280;18301;51.076;17.046;2023-01-19T18:50:37;99373.91;;;1.33;71.03
31717;BME280;18301;51.076;17.046;2023-01-19T18:55:38;99370.78;;;1.25;70.89
31717;BME280;18301;51.076;17.046;2023-01-19T19:00:40;99366.63;;;1.20;71.52
31717;BME280;18301;51.076;17.046;2023-01-19T19:05:42;99370.56;;;1.12;71.27
31717;BME280;18301;51.076;17.046;2023-01-19T19:10:44;99376.03;;;1.09;71.57
31717;BME280;18301;51.076;17.046;2023-01-19T19:15:45;99388.19;;;1.13;71.92
31717;BME280;18301;51.076;17.046;2023-01-19T19:20:47;99395.63;;;1.07;71.86
31717;BME280;18301;51.076;17.046;2023-01-19T19:25:49;99399.13;;;1.07;71.72
31717;BME280;18301;51.076;17.046;2023-01-19T19:31:10;99420.25;;;1.10;71.95
31717;BME280;18301;51.076;17.046;2023-01-19T19:36:12;99427.81;;;1.01;72.05
31717;BME280;18301;51.076;17.046;2023-01-19T19:41:24;99429.94;;;0.94;72.17
31717;BME280;18301;51.076;17.046;2023-01-19T19:46:27;99437.59;;;1.00;72.36
31717;BME280;18301;51.076;17.046;2023-01-19T19:51:29;99449.72;;;1.06;72.42
31717;BME280;18301;51.076;17.046;2023-01-19T19:56:31;99454.00;;;1.08;72.51
31717;BME280;18301;51.076;17.046;2023-01-19T20:01:34;99457.59;;;1.07;72.07
31717;BME280;18301;51.076;17.046;2023-01-19T20:06:41;99474.47;;;1.06;72.06
31717;BME280;18301;51.076;17.046;2023-01-19T20:11:45;99469.25;;;1.05;72.52
31717;BME280;18301;51.076;17.046;2023-01-19T20:16:47;99477.44;;;1.00;72.49
31717;BME280;18301;51.076;17.046;2023-01-19T20:21:48;99490.97;;;0.96;72.26
31717;BME280;18301;51.076;17.046;2023-01-19T20:26:51;99482.34;;;0.90;72.43
31717;BME280;18301;51.076;17.046;2023-01-19T20:31:54;99501.19;;;1.03;72.90
31717;BME280;18301;51.076;17.046;2023-01-19T20:36:56;99483.00;;;1.13;72.84
31717;BME280;18301;51.076;17.046;2023-01-19T20:41:58;99470.09;;;1.05;72.92
31717;BME280;18301;51.076;17.046;2023-01-19T20:46:59;99484.16;;;1.07;73.02
31717;BME280;18301;51.076;17.046;2023-01-19T20:52:01;99484.47;;;1.01;73.15
31717;BME280;18301;51.076;17.046;2023-01-19T20:57:03;99500.41;;;1.01;73.24
31717;BME280;18301;51.076;17.046;2023-01-19T21:02:04;99502.06;;;1.04;72.91
31717;BME280;18301;51.076;17.046;2023-01-19T21:07:08;99502.75;;;1.07;72.99
31717;BME280;18301;51.076;17.046;2023-01-19T21:12:10;99489.63;;;1.04;73.60
31717;BME280;18301;51.076;17.046;2023-01-19T21:17:12;99499.94;;;1.10;73.18
31717;BME280;18301;51.076;17.046;2023-01-19T21:22:14;99497.94;;;1.15;73.23
31717;BME280;18301;51.076;17.046;2023-01-19T21:27:15;99502.53;;;1.12;73.11
31717;BME280;18301;51.076;17.046;2023-01-19T21:32:16;99497.63;;;1.22;72.99
31717;BME280;18301;51.076;17.046;2023-01-19T21:37:18;99499.34;;;1.23;72.33
31717;BME280;18301;51.076;17.046;2023-01-19T21:42:19;99504.19;;;1.32;72.20
31717;BME280;18301;51.076;17.046;2023-01-19T21:47:23;99512.81;;;1.37;71.65
31717;BME280;18301;51.076;17.046;2023-01-19T21:52:24;99506.78;;;1.33;71.39
31717;BME280;18301;51.076;17.046;2023-01-19T21:57:26;99508.75;;;1.47;71.05
31717;BME280;18301;51.076;17.046;2023-01-19T22:02:27;99506.03;;;1.49;70.83
31717;BME280;18301;51.076;17.046;2023-01-19T22:07:38;99506.09;;;1.65;70.51
31717;BME280;18301;51.076;17.046;2023-01-19T22:12:40;99519.75;;;1.57;70.72
31717;BME280;18301;51.076;17.046;2023-01-19T22:17:42;99527.69;;;1.58;70.84
31717;BME280;18301;51.076;17.046;2023-01-19T22:22:43;99528.84;;;1.53;71.02
31717;BME280;18301;51.076;17.046;2023-01-19T22:27:44;99543.00;;;1.53;71.50
31717;BME280;18301;51.076;17.046;2023-01-19T22:32:46;99550.97;;;1.36;71.72
31717;BME280;18301;51.076;17.046;2023-01-19T22:37:47;99552.94;;;1.13;72.13
31717;BME280;18301;51.076;17.046;2023-01-19T22:42:49;99552.19;;;1.11;72.38
31717;BME280;18301;51.076;17.046;2023-01-19T22:47:50;99561.41;;;1.22;72.33
31717;BME280;18301;51.076;17.046;2023-01-19T22:52:55;99572.19;;;1.19;72.58
31717;BME280;18301;51.076;17.046;2023-01-19T22:57:58;99575.94;;;1.14;72.39
31717;BME280;18301;51.076;17.046;2023-01-19T23:02:59;99575.63;;;1.21;72.51
31717;BME280;18301;51.076;17.046;2023-01-19T23:08:01;99570.94;;;1.26;72.52
31717;BME280;18301;51.076;17.046;2023-01-19T23:13:02;99566.13;;;1.34;72.77
31717;BME280;18301;51.076;17.046;2023-01-19T23:18:04;99567.84;;;1.35;72.62
31717;BME280;18301;51.076;17.046;2023-01-19T23:23:05;99571.13;;;1.40;72.89
31717;BME280;18301;51.076;17.046;2023-01-19T23:28:07;99567.84;;;1.35;72.81
31717;BME280;18301;51.076;17.046;2023-01-19T23:33:08;99577.22;;;1.25;72.99
31717;BME280;18301;51.076;17.046;2023-01-19T23:38:10;99577.06;;;1.28;73.06
31717;BME280;18301;51.076;17.046;2023-01-19T23:43:11;99581.56;;;1.26;73.06
31717;BME280;18301;51.076;17.046;2023-01-19T23:48:13;99599.47;;;1.22;72.86
31717;BME280;18301;51.076;17.046;2023-01-19T23:53:14;99595.59;;;1.10;73.15
31717;BME280;18301;51.076;17.046;2023-01-19T23:58:16;99604.31;;;1.14;73.23
